マニラ/ニノイ・アキノ の空港の天気 - METARとTAF

ニノイ・アキノ国際空港 ( RPLL / MNL ) - フィリピン マニラ
飛行場実況気象(Metar)
観測時間01/20 10:00 PHT (01/20 02:00 UTC)
風向・風速北 3m/s
視程10km以上
天気現象
全天の4割程度の雲 雲底高度 700m
全天の8割程度の雲 雲底高度 2740m
気温28℃
湿度70%
気圧1014hPa
METARRPLL 200200Z 35006KT 9999 SCT023 BKN090 28/22 Q1014 NOSIG RMK A2994
過去の天気等 Google飛行場航空写真 Wunderground天気予報

過去48時間のMETAR

飛行場予報(TAF)
発表時間: 1/20 07:00 PHT (1/19 23:00 UTC)
予報対象時間: 20日8時 PHT ~ 21日14時 PHT
風向・風速東 4m/s
視程10km以上
少しの雲 雲底高度 700m
全天の4割程度の雲 雲底高度 9140m
20日8時 PHT ~ 20日14時 PHT に一時的に
風向・風速東 7m/s
全天の4割程度の雲 雲底高度 700m
全天の8割程度の雲 雲底高度 9140m
20日14時 PHT ~ 20日20時 PHT に一時的に
風向・風速東南東 7m/s
少しの雲 雲底高度 760m
全天の4割程度の雲 雲底高度 3050m
TAF RPLL 192300Z 2000/2106 09008KT 9999 FEW023 SCT300 TX31/2007Z TN24/2022Z
TEMPO 2000/2006 10014KT SCT023 BKN300
TEMPO 2006/2012 11013KT FEW025 SCT100